Amenia, New York
Current Conditions -  °F | °C
As of 4:53 AM on Sunday 25 Jan 2015 (Local Time) from KPOU Reporting Station
Scattered Clouds Scattered Clouds  
Wind Chill: 25°   Ceiling: Unl
Heat Index: 34°   Visibility: 10mi
Dew Point: 25°   Wind: 12mph
Humidity: 70%   Direction: 240°WSW
Pressure: 29.54"   Gusts: NA
Location:  41.85°N, 73.55°W
Report Text: KPOU 250953Z 24010KT 10SM SCT070 01/M04 A2954 RMK AO2 SLP001 T00111039
Loading
Personal Weather Stations






























Interactive Weather Map New forecast layout! Learn more

10-Day Weather Forecast

Advertisements
Track Severe Weather on mobile